createdAt,value
2022-09-23T00:00:00.640Z,3.85
2022-09-23T00:01:00.852Z,3.84
2022-09-23T00:02:01.031Z,3.79
2022-09-23T00:03:01.162Z,3.77
2022-09-23T00:04:01.264Z,3.78
2022-09-23T00:05:00.391Z,3.77
2022-09-23T00:06:00.541Z,3.75
2022-09-23T00:07:00.682Z,3.75
2022-09-23T00:08:00.825Z,3.75
2022-09-23T00:09:01.020Z,3.72
2022-09-23T00:10:01.142Z,3.68
2022-09-23T00:11:00.281Z,3.64
2022-09-23T00:12:00.430Z,3.62
2022-09-23T00:13:00.578Z,3.62
2022-09-23T00:14:00.747Z,3.6
2022-09-23T00:15:00.876Z,3.59
2022-09-23T00:16:01.036Z,3.59
2022-09-23T00:17:01.273Z,3.59
2022-09-23T00:18:00.321Z,3.6
2022-09-23T00:19:00.484Z,3.59
2022-09-23T00:20:00.617Z,3.58
2022-09-23T00:21:00.749Z,3.59
2022-09-23T00:22:00.914Z,3.63
2022-09-23T00:23:01.043Z,3.69
2022-09-23T00:24:01.273Z,3.77
2022-09-23T00:25:00.371Z,3.8
2022-09-23T00:26:00.528Z,3.83
2022-09-23T00:27:00.672Z,3.79
2022-09-23T00:28:00.817Z,3.73
2022-09-23T00:29:00.982Z,3.67
2022-09-23T00:30:01.140Z,3.64
2022-09-23T00:31:00.295Z,3.64
2022-09-23T00:32:00.411Z,3.68
2022-09-23T00:33:00.559Z,3.74
2022-09-23T00:34:00.731Z,3.78
2022-09-23T00:35:00.859Z,3.74
2022-09-23T00:36:01.000Z,3.69
2022-09-23T00:37:01.135Z,3.65
2022-09-23T00:38:00.287Z,3.64
2022-09-23T00:39:00.427Z,3.64
2022-09-23T00:40:00.606Z,3.68
2022-09-23T00:41:00.720Z,3.75
2022-09-23T00:42:00.865Z,3.78
2022-09-23T00:43:01.020Z,3.8
2022-09-23T00:44:01.164Z,3.83
2022-09-23T00:45:00.320Z,3.85
2022-09-23T00:46:00.525Z,3.88
2022-09-23T00:47:00.602Z,3.91
2022-09-23T00:48:00.751Z,3.92
2022-09-23T00:49:00.901Z,3.93
2022-09-23T00:50:01.052Z,3.93
2022-09-23T00:51:01.210Z,3.94
2022-09-23T00:52:00.355Z,3.97
2022-09-23T00:53:00.512Z,3.97
2022-09-23T00:54:00.762Z,3.97
2022-09-23T00:55:00.813Z,3.98
2022-09-23T00:56:00.960Z,3.99
2022-09-23T00:57:01.135Z,3.99
2022-09-23T00:58:01.250Z,4.02
2022-09-23T00:59:00.412Z,4.02
2022-09-23T01:00:00.543Z,4.03
2022-09-23T01:01:00.770Z,4.03
2022-09-23T01:02:00.920Z,4.05
2022-09-23T01:03:00.967Z,4.05
2022-09-23T01:04:01.122Z,4.06
2022-09-23T01:05:00.260Z,4.07
2022-09-23T01:06:00.403Z,4.07
2022-09-23T01:07:00.547Z,4.08
2022-09-23T01:08:00.700Z,4.09
2022-09-23T01:09:00.872Z,4.1
2022-09-23T01:10:01.013Z,4.1
2022-09-23T01:11:01.131Z,4.1
2022-09-23T01:12:00.259Z,4.1
2022-09-23T01:13:00.401Z,4.1
2022-09-23T01:14:00.559Z,4.1
2022-09-23T01:15:00.739Z,4.1
2022-09-23T01:16:00.856Z,4.09
2022-09-23T01:17:01.069Z,4.09
2022-09-23T01:18:01.158Z,4.08
2022-09-23T01:19:00.302Z,4.09
2022-09-23T01:20:00.473Z,4.08
2022-09-23T01:21:00.597Z,4.05
2022-09-23T01:22:00.744Z,4.01
2022-09-23T01:23:00.893Z,3.94
2022-09-23T01:24:01.042Z,3.88
2022-09-23T01:25:01.207Z,3.83
2022-09-23T01:26:00.336Z,3.78
2022-09-23T01:27:00.511Z,3.72
2022-09-23T01:28:00.633Z,3.64
2022-09-23T01:29:00.784Z,3.6
2022-09-23T01:30:00.965Z,3.58
2022-09-23T01:31:01.172Z,3.57
2022-09-23T01:32:01.236Z,3.55
2022-09-23T01:33:00.381Z,3.53
2022-09-23T01:34:00.541Z,3.53
2022-09-23T01:35:00.717Z,3.52
2022-09-23T01:36:00.845Z,3.48
2022-09-23T01:37:00.991Z,3.44
2022-09-23T01:38:04.072Z,3.41
2022-09-23T01:39:00.365Z,3.41
2022-09-23T01:40:00.467Z,3.46
2022-09-23T01:41:00.587Z,3.46
2022-09-23T01:42:00.738Z,3.47
2022-09-23T01:43:00.891Z,3.47
2022-09-23T01:44:01.040Z,3.47
2022-09-23T01:45:01.214Z,3.42
2022-09-23T01:46:00.332Z,3.4
2022-09-23T01:47:00.482Z,3.35
2022-09-23T01:48:00.701Z,3.32
2022-09-23T01:49:00.890Z,3.3
2022-09-23T01:50:00.949Z,3.29
2022-09-23T01:51:01.072Z,3.28
2022-09-23T01:52:01.225Z,3.29
2022-09-23T01:53:00.366Z,3.33
2022-09-23T01:54:00.514Z,3.31
2022-09-23T01:55:00.694Z,3.27
2022-09-23T01:56:00.811Z,3.21
2022-09-23T01:57:00.974Z,3.16
2022-09-23T01:58:01.115Z,3.2
2022-09-23T01:59:01.256Z,3.24
2022-09-23T02:00:00.413Z,3.19
2022-09-23T02:01:00.642Z,3.21
2022-09-23T02:02:00.787Z,3.23
2022-09-23T02:03:00.852Z,3.24
2022-09-23T02:04:01.017Z,3.26
2022-09-23T02:05:01.157Z,3.21
2022-09-23T02:06:00.305Z,3.21
2022-09-23T02:07:00.446Z,3.23
2022-09-23T02:08:00.593Z,3.25
2022-09-23T02:09:00.774Z,3.21
2022-09-23T02:10:00.909Z,3.16
2022-09-23T02:11:01.069Z,3.13
2022-09-23T02:12:01.200Z,3.13
2022-09-23T02:13:00.359Z,3.14
2022-09-23T02:14:00.509Z,3.18
2022-09-23T02:15:00.648Z,3.21
2022-09-23T02:16:00.786Z,3.21
2022-09-23T02:17:01.014Z,3.18
2022-09-23T02:18:01.090Z,3.15
2022-09-23T02:19:01.247Z,3.18
2022-09-23T02:20:00.380Z,3.2
2022-09-23T02:21:00.538Z,3.18
2022-09-23T02:22:00.682Z,3.14
2022-09-23T02:23:00.828Z,3.11
2022-09-23T02:24:00.993Z,3.11
2022-09-23T02:25:01.114Z,3.14
2022-09-23T02:26:00.263Z,3.24
2022-09-23T02:27:00.402Z,3.31
2022-09-23T02:28:00.555Z,3.34
2022-09-23T02:29:00.734Z,3.38
2022-09-23T02:30:00.849Z,3.39
2022-09-23T02:31:01.006Z,3.41
2022-09-23T02:32:01.195Z,3.43
2022-09-23T02:33:00.286Z,3.43
2022-09-23T02:34:00.454Z,3.44
2022-09-23T02:35:00.618Z,3.43
2022-09-23T02:36:00.744Z,3.42
2022-09-23T02:37:00.884Z,3.4
2022-09-23T02:38:01.031Z,3.4
2022-09-23T02:39:01.169Z,3.4
2022-09-23T02:40:00.332Z,3.39
2022-09-23T02:41:00.481Z,3.41
2022-09-23T02:42:00.609Z,3.43
2022-09-23T02:43:00.760Z,3.43
2022-09-23T02:44:00.902Z,3.44
2022-09-23T02:45:01.059Z,3.42
2022-09-23T02:46:01.306Z,3.42
2022-09-23T02:47:00.347Z,3.46
2022-09-23T02:48:00.496Z,3.46
2022-09-23T02:49:00.628Z,3.47
2022-09-23T02:50:00.789Z,3.47
2022-09-23T02:51:00.962Z,3.47
2022-09-23T02:52:01.092Z,3.47
2022-09-23T02:53:01.226Z,3.47
2022-09-23T02:54:00.368Z,3.48
2022-09-23T02:55:00.528Z,3.48
2022-09-23T02:56:00.683Z,3.48
2022-09-23T02:57:00.815Z,3.49
2022-09-23T02:58:00.956Z,3.53
2022-09-23T02:59:01.106Z,3.53
2022-09-23T03:00:00.265Z,3.53
2022-09-23T03:01:00.497Z,3.5
2022-09-23T03:02:00.669Z,3.48
2022-09-23T03:03:00.703Z,3.48
2022-09-23T03:04:00.870Z,3.48
2022-09-23T03:05:01.010Z,3.47
2022-09-23T03:06:01.155Z,3.47
2022-09-23T03:07:00.292Z,3.47
2022-09-23T03:08:00.445Z,3.47
2022-09-23T03:09:00.612Z,3.47
2022-09-23T03:10:00.742Z,3.48
2022-09-23T03:11:00.883Z,3.48
2022-09-23T03:12:01.040Z,3.49
2022-09-23T03:13:01.178Z,3.5
2022-09-23T03:14:00.349Z,3.48
2022-09-23T03:15:00.458Z,3.52
2022-09-23T03:16:00.790Z,3.54
2022-09-23T03:17:00.771Z,3.56
2022-09-23T03:18:00.915Z,3.58
2022-09-23T03:19:01.076Z,3.59
2022-09-23T03:20:01.225Z,3.59
2022-09-23T03:21:00.364Z,3.6
2022-09-23T03:22:00.498Z,3.59
2022-09-23T03:23:00.649Z,3.57
2022-09-23T03:24:00.795Z,3.57
2022-09-23T03:25:00.974Z,3.56
2022-09-23T03:26:01.100Z,3.57
2022-09-23T03:27:01.239Z,3.58
2022-09-23T03:28:00.375Z,3.59
2022-09-23T03:29:00.544Z,3.58
2022-09-23T03:30:00.694Z,3.57
2022-09-23T03:31:00.832Z,3.56
2022-09-23T03:32:01.054Z,3.54
2022-09-23T03:33:01.127Z,3.53
2022-09-23T03:34:00.273Z,3.5
2022-09-23T03:35:00.450Z,3.47
2022-09-23T03:36:00.577Z,3.46
2022-09-23T03:37:00.729Z,3.43
2022-09-23T03:38:00.871Z,3.43
2022-09-23T03:39:01.075Z,3.39
2022-09-23T03:40:01.193Z,3.35
2022-09-23T03:41:00.315Z,3.28
2022-09-23T03:42:00.457Z,3.25
2022-09-23T03:43:00.603Z,3.25
2022-09-23T03:44:00.755Z,3.3
2022-09-23T03:45:00.924Z,3.32
2022-09-23T03:46:01.074Z,3.33
2022-09-23T03:47:01.199Z,3.34
2022-09-23T03:48:00.340Z,3.35
2022-09-23T03:49:00.568Z,3.36
2022-09-23T03:50:00.641Z,3.38
2022-09-23T03:51:00.786Z,3.41
2022-09-23T03:52:00.929Z,3.43
2022-09-23T03:53:01.073Z,3.42
2022-09-23T03:54:01.248Z,3.46
2022-09-23T03:55:00.360Z,3.47
2022-09-23T03:56:00.534Z,3.48
2022-09-23T03:57:00.667Z,3.48
2022-09-23T03:58:00.815Z,3.47
2022-09-23T03:59:00.986Z,3.44
2022-09-23T04:00:01.103Z,3.4
2022-09-23T04:01:01.360Z,3.36
2022-09-23T04:02:00.504Z,3.34
2022-09-23T04:03:00.542Z,3.32
2022-09-23T04:04:00.717Z,3.31
2022-09-23T04:05:00.839Z,3.31
2022-09-23T04:06:00.994Z,3.31
2022-09-23T04:07:01.136Z,3.31
2022-09-23T04:08:00.282Z,3.31
2022-09-23T04:09:00.434Z,3.3
2022-09-23T04:10:00.610Z,3.29
2022-09-23T04:11:00.727Z,3.28
2022-09-23T04:12:00.876Z,3.28
2022-09-23T04:13:01.025Z,3.28
2022-09-23T04:14:01.175Z,3.28
2022-09-23T04:15:00.328Z,3.29
2022-09-23T04:16:00.550Z,3.29
2022-09-23T04:17:00.607Z,3.29
2022-09-23T04:18:00.755Z,3.28
2022-09-23T04:19:00.908Z,3.28
2022-09-23T04:20:01.066Z,3.27
2022-09-23T04:21:01.527Z,3.27
2022-09-23T04:22:00.346Z,3.26
2022-09-23T04:23:00.502Z,3.26
2022-09-23T04:24:00.746Z,3.26
2022-09-23T04:25:00.842Z,3.25
2022-09-23T04:26:00.956Z,3.27
2022-09-23T04:27:01.106Z,3.26
2022-09-23T04:28:01.255Z,3.26
2022-09-23T04:29:00.417Z,3.28
2022-09-23T04:30:00.549Z,3.28
2022-09-23T04:31:00.695Z,3.29
2022-09-23T04:32:00.945Z,3.29
2022-09-23T04:33:01.006Z,3.28
2022-09-23T04:34:01.158Z,3.28
2022-09-23T04:35:00.294Z,3.28
2022-09-23T04:36:00.447Z,3.27
2022-09-23T04:37:00.607Z,3.27
2022-09-23T04:38:00.743Z,3.29
2022-09-23T04:39:00.929Z,3.29
2022-09-23T04:40:01.057Z,3.27
2022-09-23T04:41:01.205Z,3.26
2022-09-23T04:42:00.344Z,3.27
2022-09-23T04:43:00.512Z,3.27
2022-09-23T04:44:00.665Z,3.26
2022-09-23T04:45:00.817Z,3.25
2022-09-23T04:46:00.983Z,3.25
2022-09-23T04:47:01.185Z,3.24
2022-09-23T04:48:01.247Z,3.23
2022-09-23T04:49:00.493Z,3.2
2022-09-23T04:50:00.561Z,3.18
2022-09-23T04:51:00.721Z,3.16
2022-09-23T04:52:00.846Z,3.15
2022-09-23T04:53:00.995Z,3.13
2022-09-23T04:54:01.136Z,3.15
2022-09-23T04:55:00.293Z,3.16
2022-09-23T04:56:00.462Z,3.15
2022-09-23T04:57:00.589Z,3.13
2022-09-23T04:58:00.731Z,3.12
2022-09-23T04:59:00.892Z,3.12
2022-09-23T05:00:01.034Z,3.11
2022-09-23T05:01:05.096Z,3.1
2022-09-23T05:02:00.400Z,3.09
2022-09-23T05:03:00.455Z,3.1
2022-09-23T05:04:00.613Z,3.11
2022-09-23T05:05:00.743Z,3.13
2022-09-23T05:06:00.901Z,3.13
2022-09-23T05:07:03.362Z,3.12
2022-09-23T05:08:01.187Z,3.12
2022-09-23T05:09:00.414Z,3.11
2022-09-23T05:10:00.480Z,3.1
2022-09-23T05:11:00.651Z,3.09
2022-09-23T05:12:00.810Z,3.08
2022-09-23T05:13:00.944Z,3.06
2022-09-23T05:14:01.123Z,3.08
2022-09-23T05:16:00.419Z,3.06
2022-09-23T05:17:00.516Z,3.06
2022-09-23T05:18:00.659Z,3.06
2022-09-23T05:19:00.919Z,3.05
2022-09-23T05:20:00.951Z,3.05
2022-09-23T05:21:01.109Z,3.05
2022-09-23T05:22:01.239Z,3.05
2022-09-23T05:23:00.395Z,3.06
2022-09-23T05:24:00.792Z,3.08
2022-09-23T05:25:00.692Z,3.08
2022-09-23T05:26:00.904Z,3.09
2022-09-23T05:27:00.988Z,3.1
2022-09-23T05:28:01.124Z,3.11
2022-09-23T05:29:00.486Z,3.12
2022-09-23T05:30:00.419Z,3.12
2022-09-23T05:31:00.620Z,3.12
2022-09-23T05:32:00.772Z,3.12
2022-09-23T05:33:00.872Z,3.12
2022-09-23T05:34:01.105Z,3.13
2022-09-23T05:35:01.173Z,3.13
2022-09-23T05:36:00.327Z,3.13
2022-09-23T05:37:00.466Z,3.13
2022-09-23T05:38:00.625Z,3.14
2022-09-23T05:39:00.789Z,3.14
2022-09-23T05:40:00.931Z,3.15
2022-09-23T05:41:01.085Z,3.15
2022-09-23T05:42:01.221Z,3.18
2022-09-23T05:43:00.365Z,3.21
2022-09-23T05:44:00.548Z,3.23
2022-09-23T05:45:00.686Z,3.23
2022-09-23T05:46:02.257Z,3.24
2022-09-23T05:47:01.066Z,3.24
2022-09-23T05:48:01.131Z,3.25
2022-09-23T05:49:03.072Z,3.25
2022-09-23T05:50:00.792Z,3.26
2022-09-23T05:51:00.575Z,3.27
2022-09-23T05:52:00.705Z,3.29
2022-09-23T05:53:00.849Z,3.3
2022-09-23T05:54:01.004Z,3.32
2022-09-23T05:55:01.179Z,3.33
2022-09-23T05:56:00.331Z,3.34
2022-09-23T05:57:04.202Z,3.35
2022-09-23T05:58:00.589Z,3.36
2022-09-23T05:59:00.823Z,3.39
2022-09-23T06:00:00.899Z,3.41
2022-09-23T06:01:01.040Z,3.43
2022-09-23T06:02:01.249Z,3.46
2022-09-23T06:03:00.401Z,3.47
2022-09-23T06:04:00.604Z,3.47
2022-09-23T06:05:00.634Z,3.48
2022-09-23T06:06:00.763Z,3.5
2022-09-23T06:07:03.469Z,3.53
2022-09-23T06:08:01.057Z,3.55
2022-09-23T06:09:01.219Z,3.57
2022-09-23T06:10:00.380Z,3.59
2022-09-23T06:11:00.506Z,3.61
2022-09-23T06:12:00.647Z,3.64
2022-09-23T06:13:00.794Z,3.64
2022-09-23T06:14:00.995Z,3.67
2022-09-23T06:15:01.093Z,3.69
2022-09-23T06:16:01.292Z,3.72
2022-09-23T06:17:00.371Z,3.74
2022-09-23T06:18:00.507Z,3.78
2022-09-23T06:19:04.456Z,3.82
2022-09-23T06:20:00.833Z,3.84
2022-09-23T06:21:00.959Z,3.88
2022-09-23T06:22:01.111Z,3.91
2022-09-23T06:23:01.255Z,3.93
2022-09-23T06:24:00.392Z,3.97
2022-09-23T06:25:00.579Z,4
2022-09-23T06:26:00.681Z,4.03
2022-09-23T06:27:00.827Z,4.05
2022-09-23T06:28:00.979Z,4.07
2022-09-23T06:29:01.125Z,4.1
2022-09-23T06:30:00.288Z,4.13
2022-09-23T06:31:00.477Z,4.15
2022-09-23T06:32:00.662Z,4.16
2022-09-23T06:33:00.716Z,4.19
2022-09-23T06:34:08.306Z,4.19
2022-09-23T06:35:01.018Z,4.19
2022-09-23T06:36:01.156Z,4.2
2022-09-23T06:37:05.902Z,4.21
2022-09-23T06:38:00.453Z,4.22
2022-09-23T06:39:00.614Z,4.24
2022-09-23T06:40:00.746Z,4.24
2022-09-23T06:41:00.881Z,4.26
2022-09-23T06:42:01.039Z,4.28
2022-09-23T06:43:01.178Z,4.31
2022-09-23T06:44:00.344Z,4.36
2022-09-23T06:45:00.496Z,4.37
2022-09-23T06:46:00.620Z,4.42
2022-09-23T06:47:00.837Z,4.45
2022-09-23T06:48:00.915Z,4.47
2022-09-23T06:49:01.076Z,4.5
2022-09-23T06:50:01.243Z,4.57
2022-09-23T06:51:00.362Z,4.63
2022-09-23T06:52:00.511Z,4.71
2022-09-23T06:53:00.656Z,4.78
2022-09-23T06:54:00.804Z,4.83
2022-09-23T06:55:00.960Z,4.9
2022-09-23T06:56:01.102Z,4.96
2022-09-23T06:57:01.250Z,5.02
2022-09-23T06:58:00.402Z,5.07
2022-09-23T06:59:00.555Z,5.12
2022-09-23T07:00:00.680Z,5.17
2022-09-23T07:01:00.827Z,5.2
2022-09-23T07:02:01.166Z,5.24
2022-09-23T07:03:01.190Z,5.3
2022-09-23T07:04:00.307Z,5.36
2022-09-23T07:05:00.429Z,5.41
2022-09-23T07:06:00.586Z,5.48
2022-09-23T07:07:00.734Z,5.54
2022-09-23T07:08:00.899Z,5.66
2022-09-23T07:09:01.176Z,5.75
2022-09-23T07:10:01.162Z,5.84
2022-09-23T07:11:00.309Z,5.92
2022-09-23T07:12:00.459Z,6
2022-09-23T07:13:00.623Z,6.07
2022-09-23T07:14:00.744Z,6.13
2022-09-23T07:15:00.892Z,6.2
2022-09-23T07:16:01.117Z,6.27
2022-09-23T07:17:01.176Z,6.34
2022-09-23T07:18:00.350Z,6.41
2022-09-23T07:19:00.488Z,6.51
2022-09-23T07:20:00.620Z,6.59
2022-09-23T07:21:00.774Z,6.67
2022-09-23T07:22:00.930Z,6.73
2022-09-23T07:23:01.069Z,6.8
2022-09-23T07:24:01.221Z,6.87
2022-09-23T07:25:00.351Z,6.95
2022-09-23T07:26:00.503Z,7.02
2022-09-23T07:27:00.682Z,7.11
2022-09-23T07:28:00.799Z,7.17
2022-09-23T07:29:00.955Z,7.25
2022-09-23T07:30:01.115Z,7.32
2022-09-23T07:31:01.349Z,7.39
2022-09-23T07:32:11.814Z,7.46
2022-09-23T07:33:00.636Z,7.54
2022-09-23T07:34:00.694Z,7.59
2022-09-23T07:35:00.821Z,7.65
2022-09-23T07:36:00.972Z,7.73
2022-09-23T07:37:01.109Z,7.79
2022-09-23T07:38:00.254Z,7.85
2022-09-23T07:39:00.433Z,7.9
2022-09-23T07:40:00.572Z,7.97
2022-09-23T07:41:00.689Z,8.04
2022-09-23T07:42:00.836Z,8.12
2022-09-23T07:43:00.982Z,8.19
2022-09-23T07:44:01.142Z,8.26
2022-09-23T07:45:00.283Z,8.33
2022-09-23T07:46:00.510Z,8.42
2022-09-23T07:47:00.569Z,8.49
2022-09-23T07:48:00.715Z,8.58
2022-09-23T07:49:00.891Z,8.65
2022-09-23T07:50:01.012Z,8.73
2022-09-23T07:51:01.165Z,8.79
2022-09-23T07:52:00.311Z,8.86
2022-09-23T07:53:00.467Z,8.94
2022-09-23T07:54:00.609Z,8.95
2022-09-23T07:55:00.777Z,9.01
2022-09-23T07:56:00.892Z,9.08
2022-09-23T07:57:01.027Z,9.15
2022-09-23T07:58:01.200Z,9.22
2022-09-23T07:59:00.807Z,9.3
2022-09-23T08:00:00.488Z,9.35
2022-09-23T08:01:00.619Z,9.4
2022-09-23T08:02:00.842Z,9.47
2022-09-23T08:03:00.995Z,9.52
2022-09-23T08:04:01.069Z,9.56
2022-09-23T08:05:01.247Z,9.62
2022-09-23T08:06:00.371Z,9.69
2022-09-23T08:07:00.517Z,9.74
2022-09-23T08:08:00.655Z,9.78
2022-09-23T08:09:00.888Z,9.82
2022-09-23T08:10:00.963Z,9.86
2022-09-23T08:11:01.106Z,9.92
2022-09-23T08:12:01.238Z,9.96
2022-09-23T08:13:00.383Z,10
2022-09-23T08:14:00.536Z,10.06
2022-09-23T08:15:00.698Z,10.11
2022-09-23T08:16:00.896Z,10.15
2022-09-23T08:17:00.969Z,10.2
2022-09-23T08:18:01.112Z,10.25
2022-09-23T08:19:00.311Z,10.31
2022-09-23T08:20:00.438Z,10.38
2022-09-23T08:21:00.557Z,10.42
2022-09-23T08:22:00.700Z,10.48
2022-09-23T08:23:00.849Z,10.54
2022-09-23T08:24:01.015Z,10.62
2022-09-23T08:25:01.145Z,10.69
2022-09-23T08:26:00.287Z,10.73
2022-09-23T08:27:00.432Z,10.78
2022-09-23T08:28:00.598Z,10.82
2022-09-23T08:29:00.748Z,10.86
2022-09-23T08:30:00.903Z,10.92
2022-09-23T08:31:01.125Z,10.95
2022-09-23T08:32:01.176Z,11
2022-09-23T08:33:00.330Z,11.04
2022-09-23T08:34:00.541Z,11.09
2022-09-23T08:35:00.633Z,11.14
2022-09-23T08:36:00.785Z,11.22
2022-09-23T08:37:00.911Z,11.26
2022-09-23T08:38:01.077Z,11.3
2022-09-23T08:39:01.200Z,11.33
2022-09-23T08:40:00.369Z,11.39
2022-09-23T08:41:00.502Z,11.43
2022-09-23T08:42:00.643Z,11.47
2022-09-23T08:43:00.797Z,11.51
2022-09-23T08:44:00.961Z,11.55
2022-09-23T08:45:01.088Z,11.61
2022-09-23T08:46:01.365Z,11.64
2022-09-23T08:47:00.384Z,11.69
2022-09-23T08:48:00.531Z,11.7
2022-09-23T08:49:00.696Z,11.73
2022-09-23T08:50:00.836Z,11.75
2022-09-23T08:51:00.969Z,11.78
2022-09-23T08:52:01.117Z,11.82
2022-09-23T08:53:00.260Z,11.85
2022-09-23T08:54:00.427Z,11.9
2022-09-23T08:55:00.547Z,11.94
2022-09-23T08:56:00.697Z,12
2022-09-23T08:57:00.833Z,12.05
2022-09-23T08:58:23.943Z,12.08
2022-09-23T08:59:01.146Z,12.13
2022-09-23T09:00:00.277Z,12.16
2022-09-23T09:01:00.558Z,12.2
2022-09-23T09:02:00.559Z,12.26
2022-09-23T09:03:00.715Z,12.3
2022-09-23T09:04:00.890Z,12.34
2022-09-23T09:05:01.027Z,12.38
2022-09-23T09:06:01.156Z,12.4
2022-09-23T09:07:24.569Z,12.44
2022-09-23T09:08:00.452Z,12.48
2022-09-23T09:09:00.697Z,12.49
2022-09-23T09:10:00.742Z,12.52
2022-09-23T09:11:00.903Z,12.56
2022-09-23T09:12:01.048Z,12.59
2022-09-23T09:13:01.198Z,12.6
2022-09-23T09:14:00.360Z,12.65
2022-09-23T09:15:00.496Z,12.65
2022-09-23T09:16:00.686Z,12.69
2022-09-23T09:17:01.500Z,12.73
2022-09-23T09:18:00.936Z,12.75
2022-09-23T09:19:01.099Z,12.79
2022-09-23T09:20:01.236Z,12.81
2022-09-23T09:21:00.372Z,12.85
2022-09-23T09:22:00.536Z,12.89
2022-09-23T09:23:00.741Z,12.94
2022-09-23T09:24:00.827Z,13.02
2022-09-23T09:25:00.961Z,13.03
2022-09-23T09:26:01.114Z,13.08
2022-09-23T09:28:00.370Z,13.18
2022-09-23T09:29:16.806Z,13.19
2022-09-23T09:30:00.647Z,13.2
2022-09-23T09:31:00.846Z,13.22
2022-09-23T09:32:00.946Z,13.24
2022-09-23T09:33:01.111Z,13.24
2022-09-23T09:34:01.238Z,13.27
2022-09-23T09:35:00.407Z,13.33
2022-09-23T09:36:00.541Z,13.36
2022-09-23T09:37:06.175Z,13.36
2022-09-23T09:38:00.846Z,13.44
2022-09-23T09:39:01.017Z,13.47
2022-09-23T09:40:01.124Z,13.49
2022-09-23T09:41:00.275Z,13.48
2022-09-23T09:42:00.438Z,13.51
2022-09-23T09:43:00.571Z,13.54
2022-09-23T09:44:00.977Z,13.58
2022-09-23T09:45:00.875Z,13.6
2022-09-23T09:46:01.013Z,13.59
2022-09-23T09:47:01.290Z,13.61
2022-09-23T09:48:00.305Z,13.62
2022-09-23T09:49:00.583Z,13.64
2022-09-23T09:50:00.607Z,13.65
2022-09-23T09:51:00.750Z,13.66
2022-09-23T09:52:00.895Z,13.67
2022-09-23T09:53:00.992Z,13.69
2022-09-23T09:54:01.154Z,13.71
2022-09-23T09:55:00.268Z,13.73
2022-09-23T09:56:04.595Z,13.69
2022-09-23T09:57:00.592Z,13.68
2022-09-23T09:58:00.713Z,13.71
2022-09-23T09:59:00.873Z,13.74
2022-09-23T10:00:01.017Z,13.75
2022-09-23T10:01:01.230Z,13.77
2022-09-23T10:02:00.282Z,13.77
2022-09-23T10:03:00.428Z,13.77
2022-09-23T10:04:00.590Z,13.78
2022-09-23T10:05:00.739Z,13.79
2022-09-23T10:06:00.907Z,13.81
2022-09-23T10:07:01.034Z,13.81
2022-09-23T10:08:01.237Z,13.83
2022-09-23T10:09:00.381Z,13.84
2022-09-23T10:10:05.992Z,13.84
2022-09-23T10:11:00.638Z,13.85
2022-09-23T10:12:00.786Z,13.86
2022-09-23T10:13:00.924Z,13.89
2022-09-23T10:14:01.065Z,13.89
2022-09-23T10:15:00.212Z,13.89
2022-09-23T10:16:00.378Z,13.91
2022-09-23T10:17:00.595Z,13.95
2022-09-23T10:18:00.739Z,13.98
2022-09-23T10:19:00.832Z,14
2022-09-23T10:20:01.016Z,14.03
2022-09-23T10:21:01.094Z,14.06
2022-09-23T10:22:00.356Z,14.04
2022-09-23T10:23:00.400Z,14.01
2022-09-23T10:24:00.523Z,14.03
2022-09-23T10:25:00.671Z,14.07
2022-09-23T10:26:00.829Z,14.09
2022-09-23T10:27:00.965Z,14.11
2022-09-23T10:28:03.627Z,14.13
2022-09-23T10:29:00.293Z,14.15
2022-09-23T10:30:00.412Z,14.19
2022-09-23T10:31:00.597Z,14.23
2022-09-23T10:32:00.714Z,14.24
2022-09-23T10:33:00.863Z,14.27
2022-09-23T10:34:01.004Z,14.29
2022-09-23T10:35:01.142Z,14.32
2022-09-23T10:36:00.317Z,14.33
2022-09-23T10:37:00.468Z,14.34
2022-09-23T10:38:00.665Z,14.36
2022-09-23T10:39:00.895Z,14.37
2022-09-23T10:40:00.908Z,14.42
2022-09-23T10:41:01.242Z,14.43
2022-09-23T10:42:00.213Z,14.44
2022-09-23T10:43:00.356Z,14.44
2022-09-23T10:44:00.656Z,14.47
2022-09-23T10:45:00.680Z,14.5
2022-09-23T10:46:00.864Z,14.55
2022-09-23T10:47:00.976Z,14.58
2022-09-23T10:48:01.089Z,14.6
2022-09-23T10:49:00.234Z,14.59
2022-09-23T10:50:00.379Z,14.56
2022-09-23T10:51:00.528Z,14.63
2022-09-23T10:52:00.699Z,14.66
2022-09-23T10:53:00.823Z,14.7
2022-09-23T10:54:00.976Z,14.78
2022-09-23T10:55:01.122Z,14.79
2022-09-23T10:56:00.276Z,14.79
2022-09-23T10:57:00.444Z,14.78
2022-09-23T10:58:00.555Z,14.79
2022-09-23T10:59:00.715Z,14.83
2022-09-23T11:00:00.863Z,14.85
2022-09-23T11:01:01.052Z,14.92
2022-09-23T11:02:01.165Z,14.96
2022-09-23T11:03:00.291Z,14.97
2022-09-23T11:04:00.493Z,14.98
2022-09-23T11:05:00.617Z,14.98
2022-09-23T11:06:00.719Z,14.96
2022-09-23T11:07:00.891Z,14.97
2022-09-23T11:08:01.006Z,14.98
2022-09-23T11:09:01.161Z,14.95
2022-09-23T11:10:00.300Z,14.94
2022-09-23T11:11:00.445Z,15
2022-09-23T11:12:00.623Z,15.09
2022-09-23T11:13:00.749Z,15.12
2022-09-23T11:14:00.919Z,15.13
2022-09-23T11:15:01.041Z,15.13
2022-09-23T11:16:01.203Z,15.14
2022-09-23T11:17:00.392Z,15.14
2022-09-23T11:18:00.475Z,15.13
2022-09-23T11:19:00.645Z,15.11
2022-09-23T11:20:00.773Z,15.08
2022-09-23T11:21:00.918Z,15.1
2022-09-23T11:22:01.068Z,15.14
2022-09-23T11:23:01.213Z,15.17
2022-09-23T11:24:00.421Z,15.16
2022-09-23T11:25:00.495Z,15.15
2022-09-23T11:26:00.655Z,15.14
2022-09-23T11:27:00.806Z,15.15
2022-09-23T11:28:00.959Z,15.17
2022-09-23T11:29:01.115Z,15.21
2022-09-23T11:30:00.241Z,15.24
2022-09-23T11:31:00.449Z,15.28
2022-09-23T11:32:00.528Z,15.34
2022-09-23T11:33:00.702Z,15.38
2022-09-23T11:34:00.894Z,15.37
2022-09-23T11:35:00.997Z,15.36
2022-09-23T11:36:01.130Z,15.34
2022-09-23T11:37:00.249Z,15.34
2022-09-23T11:38:00.406Z,15.32
2022-09-23T11:39:00.551Z,15.31
2022-09-23T11:40:00.709Z,15.32
2022-09-23T11:41:00.942Z,15.31
2022-09-23T11:42:01.003Z,15.31
2022-09-23T11:43:01.142Z,15.3
2022-09-23T11:44:00.386Z,15.31
2022-09-23T11:45:00.462Z,15.3
2022-09-23T11:46:00.628Z,15.29
2022-09-23T11:47:00.721Z,15.3
2022-09-23T11:48:00.862Z,15.29
2022-09-23T11:49:01.013Z,15.27
2022-09-23T11:50:01.179Z,15.27
2022-09-23T11:51:00.338Z,15.28
2022-09-23T11:52:00.459Z,15.29
2022-09-23T11:53:00.611Z,15.31
2022-09-23T11:54:00.809Z,15.3
2022-09-23T11:55:03.894Z,15.3
2022-09-23T11:56:01.075Z,15.37
2022-09-23T11:57:01.204Z,15.38
2022-09-23T11:58:00.363Z,15.37
2022-09-23T11:59:00.666Z,15.37
2022-09-23T12:00:00.646Z,15.36
2022-09-23T12:01:01.453Z,15.4
2022-09-23T12:02:11.163Z,15.41
2022-09-23T12:03:05.568Z,15.48
2022-09-23T12:04:05.407Z,15.56
2022-09-23T12:05:00.597Z,15.62
2022-09-23T12:06:00.674Z,15.68
2022-09-23T12:07:00.709Z,15.76
2022-09-23T12:08:00.835Z,15.81
2022-09-23T12:09:00.987Z,15.89
2022-09-23T12:10:01.132Z,15.96
2022-09-23T12:11:00.280Z,16.04
2022-09-23T12:12:00.441Z,16.04
2022-09-23T12:13:00.588Z,16.02
2022-09-23T12:14:00.883Z,16.03
2022-09-23T12:15:00.871Z,16.04
2022-09-23T12:16:01.015Z,16.07
2022-09-23T12:17:01.243Z,16.1
2022-09-23T12:18:00.319Z,16.11
2022-09-23T12:19:00.480Z,16.12
2022-09-23T12:20:00.614Z,16.13
2022-09-23T12:21:00.767Z,16.12
2022-09-23T12:22:00.925Z,16.12
2022-09-23T12:23:01.073Z,16.08
2022-09-23T12:24:01.226Z,16.05
2022-09-23T12:25:00.359Z,15.97
2022-09-23T12:26:00.528Z,15.89
2022-09-23T12:27:00.657Z,15.83
2022-09-23T12:28:00.811Z,15.81
2022-09-23T12:29:00.947Z,15.81
2022-09-23T12:30:01.107Z,15.77
2022-09-23T12:31:00.325Z,15.8
2022-09-23T12:32:00.412Z,15.84
2022-09-23T12:33:00.547Z,15.91
2022-09-23T12:34:00.710Z,15.97
2022-09-23T12:35:00.827Z,16.02
2022-09-23T12:36:00.980Z,16.07
2022-09-23T12:37:01.142Z,16.12
2022-09-23T12:38:00.263Z,16.12
2022-09-23T12:39:00.421Z,16.12
2022-09-23T12:40:00.562Z,16.08
2022-09-23T12:41:00.687Z,16.05
2022-09-23T12:42:00.853Z,16.01
2022-09-23T12:43:00.983Z,16
2022-09-23T12:44:01.136Z,16.03
2022-09-23T12:45:00.271Z,16.05
2022-09-23T12:46:00.472Z,16.03
2022-09-23T12:47:00.598Z,16.03
2022-09-23T12:48:00.722Z,15.99
2022-09-23T12:49:00.878Z,15.95
2022-09-23T12:50:01.035Z,15.97
2022-09-23T12:51:01.179Z,16.01
2022-09-23T12:52:00.332Z,16.05
2022-09-23T12:53:00.463Z,16.11
2022-09-23T12:54:00.717Z,16.16
2022-09-23T12:55:00.760Z,16.2
2022-09-23T12:56:00.917Z,16.26
2022-09-23T12:57:01.069Z,16.32
2022-09-23T12:58:01.204Z,16.33
2022-09-23T12:59:00.365Z,16.35
2022-09-23T13:00:00.505Z,16.37
2022-09-23T13:01:00.790Z,16.39
2022-09-23T13:02:00.945Z,16.43
2022-09-23T13:03:00.960Z,16.46
2022-09-23T13:04:01.122Z,16.47
2022-09-23T13:05:00.266Z,16.5
2022-09-23T13:06:00.414Z,16.56
2022-09-23T13:07:00.577Z,16.65
2022-09-23T13:08:00.735Z,16.75
2022-09-23T13:09:00.850Z,16.86
2022-09-23T13:10:01.009Z,16.89
2022-09-23T13:11:01.157Z,16.86
2022-09-23T13:12:00.309Z,16.79
2022-09-23T13:13:00.444Z,16.81